sensor_id;sensor_type;location;lat;lon;timestamp;pressure;altitude;pressure_sealevel;temperature;humidity
4576;BME280;2300;51.874;8.430;2023-02-03T00:02:01;101437.91;;;7.70;100.00
4576;BME280;2300;51.874;8.430;2023-02-03T00:04:28;101438.66;;;7.64;100.00
4576;BME280;2300;51.874;8.430;2023-02-03T00:06:54;101434.91;;;7.65;100.00
4576;BME280;2300;51.874;8.430;2023-02-03T00:09:21;101426.28;;;7.68;100.00
4576;BME280;2300;51.874;8.430;2023-02-03T00:11:49;101438.00;;;7.62;100.00
4576;BME280;2300;51.874;8.430;2023-02-03T00:14:15;101427.72;;;7.64;100.00
4576;BME280;2300;51.874;8.430;2023-02-03T00:16:42;101433.13;;;7.58;100.00
4576;BME280;2300;51.874;8.430;2023-02-03T00:19:08;101425.66;;;7.66;100.00
4576;BME280;2300;51.874;8.430;2023-02-03T00:21:35;101419.53;;;7.64;100.00
4576;BME280;2300;51.874;8.430;2023-02-03T00:24:01;101414.06;;;7.64;100.00
4576;BME280;2300;51.874;8.430;2023-02-03T00:26:28;101417.25;;;7.68;100.00
4576;BME280;2300;51.874;8.430;2023-02-03T00:28:58;101413.41;;;7.62;100.00
4576;BME280;2300;51.874;8.430;2023-02-03T00:31:24;101418.06;;;7.62;100.00
4576;BME280;2300;51.874;8.430;2023-02-03T00:33:55;101416.34;;;7.61;100.00
4576;BME280;2300;51.874;8.430;2023-02-03T00:36:22;101417.56;;;7.58;100.00
4576;BME280;2300;51.874;8.430;2023-02-03T00:38:49;101415.63;;;7.73;100.00
4576;BME280;2300;51.874;8.430;2023-02-03T00:41:15;101410.75;;;7.69;100.00
4576;BME280;2300;51.874;8.430;2023-02-03T00:43:42;101417.75;;;7.78;100.00
4576;BME280;2300;51.874;8.430;2023-02-03T00:46:10;101412.63;;;7.68;100.00
4576;BME280;2300;51.874;8.430;2023-02-03T00:48:36;101418.16;;;7.75;100.00
4576;BME280;2300;51.874;8.430;2023-02-03T00:51:03;101407.16;;;7.68;100.00
4576;BME280;2300;51.874;8.430;2023-02-03T00:53:30;101416.88;;;7.71;100.00
4576;BME280;2300;51.874;8.430;2023-02-03T00:55:56;101410.75;;;7.69;100.00
4576;BME280;2300;51.874;8.430;2023-02-03T00:58:22;101413.03;;;7.65;100.00
4576;BME280;2300;51.874;8.430;2023-02-03T01:00:49;101429.28;;;7.73;100.00
4576;BME280;2300;51.874;8.430;2023-02-03T01:03:17;101431.16;;;7.73;100.00
4576;BME280;2300;51.874;8.430;2023-02-03T01:05:43;101430.56;;;7.77;100.00
4576;BME280;2300;51.874;8.430;2023-02-03T01:08:10;101437.13;;;7.76;100.00
4576;BME280;2300;51.874;8.430;2023-02-03T01:10:36;101447.66;;;7.79;100.00
4576;BME280;2300;51.874;8.430;2023-02-03T01:13:03;101448.44;;;7.73;100.00
4576;BME280;2300;51.874;8.430;2023-02-03T01:15:29;101459.88;;;7.83;100.00
4576;BME280;2300;51.874;8.430;2023-02-03T01:17:56;101461.56;;;7.84;100.00
4576;BME280;2300;51.874;8.430;2023-02-03T01:20:24;101459.00;;;7.76;100.00
4576;BME280;2300;51.874;8.430;2023-02-03T01:22:50;101451.66;;;7.83;100.00
4576;BME280;2300;51.874;8.430;2023-02-03T01:25:16;101443.09;;;7.86;100.00
4576;BME280;2300;51.874;8.430;2023-02-03T01:27:43;101427.97;;;7.91;100.00
4576;BME280;2300;51.874;8.430;2023-02-03T01:30:10;101440.88;;;7.75;100.00
4576;BME280;2300;51.874;8.430;2023-02-03T01:32:37;101435.47;;;7.82;100.00
4576;BME280;2300;51.874;8.430;2023-02-03T01:35:03;101443.22;;;7.78;100.00
4576;BME280;2300;51.874;8.430;2023-02-03T01:37:31;101457.53;;;7.80;100.00
4576;BME280;2300;51.874;8.430;2023-02-03T01:39:58;101456.38;;;7.89;100.00
4576;BME280;2300;51.874;8.430;2023-02-03T01:42:24;101447.66;;;7.79;100.00
4576;BME280;2300;51.874;8.430;2023-02-03T01:44:51;101461.47;;;7.93;100.00
4576;BME280;2300;51.874;8.430;2023-02-03T01:47:23;101446.03;;;7.85;100.00
4576;BME280;2300;51.874;8.430;2023-02-03T01:49:55;101452.41;;;7.92;100.00
4576;BME280;2300;51.874;8.430;2023-02-03T01:52:23;101436.25;;;7.76;100.00
4576;BME280;2300;51.874;8.430;2023-02-03T01:54:53;101443.28;;;7.85;100.00
4576;BME280;2300;51.874;8.430;2023-02-03T01:57:25;101441.81;;;7.82;100.00
4576;BME280;2300;51.874;8.430;2023-02-03T01:59:55;101437.69;;;7.72;100.00
4576;BME280;2300;51.874;8.430;2023-02-03T02:02:24;101443.09;;;7.86;100.00
4576;BME280;2300;51.874;8.430;2023-02-03T02:04:55;101440.09;;;7.81;100.00
4576;BME280;2300;51.874;8.430;2023-02-03T02:07:23;101434.81;;;7.80;100.00
4576;BME280;2300;51.874;8.430;2023-02-03T02:09:51;101436.78;;;7.86;99.96
4576;BME280;2300;51.874;8.430;2023-02-03T02:12:18;101427.47;;;7.80;99.83
4576;BME280;2300;51.874;8.430;2023-02-03T02:14:45;101416.78;;;7.85;99.65
4576;BME280;2300;51.874;8.430;2023-02-03T02:17:20;101410.22;;;7.80;99.93
4576;BME280;2300;51.874;8.430;2023-02-03T02:20:11;101402.69;;;7.88;99.74
4576;BME280;2300;51.874;8.430;2023-02-03T02:22:59;101386.03;;;7.83;99.43
4576;BME280;2300;51.874;8.430;2023-02-03T02:25:52;101386.09;;;7.90;99.41
4576;BME280;2300;51.874;8.430;2023-02-03T02:28:50;101363.53;;;7.81;99.62
4576;BME280;2300;51.874;8.430;2023-02-03T02:34:21;101373.16;;;7.77;99.57
4576;BME280;2300;51.874;8.430;2023-02-03T02:36:58;101366.66;;;7.78;99.78
4576;BME280;2300;51.874;8.430;2023-02-03T02:39:36;101333.25;;;7.83;99.64
4576;BME280;2300;51.874;8.430;2023-02-03T02:42:07;101324.22;;;7.82;98.74
4576;BME280;2300;51.874;8.430;2023-02-03T02:44:43;101331.75;;;7.80;98.89
4576;BME280;2300;51.874;8.430;2023-02-03T02:47:16;101336.97;;;7.75;99.69
4576;BME280;2300;51.874;8.430;2023-02-03T02:49:46;101335.53;;;7.79;98.75
4576;BME280;2300;51.874;8.430;2023-02-03T02:52:17;101346.34;;;7.87;99.01
4576;BME280;2300;51.874;8.430;2023-02-03T02:54:48;101345.44;;;7.80;98.59
4576;BME280;2300;51.874;8.430;2023-02-03T02:57:19;101364.63;;;7.87;98.96
4576;BME280;2300;51.874;8.430;2023-02-03T02:59:47;101372.78;;;7.80;98.78
4576;BME280;2300;51.874;8.430;2023-02-03T03:02:15;101395.31;;;7.82;98.52
4576;BME280;2300;51.874;8.430;2023-02-03T03:04:43;101397.91;;;7.91;98.56
4576;BME280;2300;51.874;8.430;2023-02-03T03:07:14;101407.38;;;7.95;97.26
4576;BME280;2300;51.874;8.430;2023-02-03T03:09:45;101401.53;;;7.98;97.15
4576;BME280;2300;51.874;8.430;2023-02-03T03:12:16;101390.53;;;7.91;97.31
4576;BME280;2300;51.874;8.430;2023-02-03T03:14:47;101407.50;;;8.08;97.25
4576;BME280;2300;51.874;8.430;2023-02-03T03:17:23;101396.06;;;7.98;96.88
4576;BME280;2300;51.874;8.430;2023-02-03T03:19:53;101394.63;;;8.02;96.97
4576;BME280;2300;51.874;8.430;2023-02-03T03:22:26;101382.81;;;8.01;97.39
4576;BME280;2300;51.874;8.430;2023-02-03T03:24:57;101361.13;;;8.00;96.91
4576;BME280;2300;51.874;8.430;2023-02-03T03:27:29;101356.09;;;7.97;97.23
4576;BME280;2300;51.874;8.430;2023-02-03T03:30:00;101356.09;;;7.97;96.66
4576;BME280;2300;51.874;8.430;2023-02-03T03:32:29;101369.88;;;7.88;96.67
4576;BME280;2300;51.874;8.430;2023-02-03T03:34:57;101368.06;;;7.96;96.54
4576;BME280;2300;51.874;8.430;2023-02-03T03:37:30;101358.09;;;7.88;96.89
4576;BME280;2300;51.874;8.430;2023-02-03T03:40:01;101353.53;;;7.95;97.00
4576;BME280;2300;51.874;8.430;2023-02-03T03:42:35;101350.13;;;7.86;97.07
4576;BME280;2300;51.874;8.430;2023-02-03T03:45:06;101359.72;;;7.76;97.20
4576;BME280;2300;51.874;8.430;2023-02-03T03:47:38;101361.06;;;7.86;97.02
4576;BME280;2300;51.874;8.430;2023-02-03T03:50:10;101361.06;;;7.86;97.23
4576;BME280;2300;51.874;8.430;2023-02-03T03:52:39;101354.94;;;7.84;96.61
4576;BME280;2300;51.874;8.430;2023-02-03T03:55:09;101364.16;;;7.83;97.11
4576;BME280;2300;51.874;8.430;2023-02-03T03:57:40;101364.28;;;7.97;97.15
4576;BME280;2300;51.874;8.430;2023-02-03T04:00:11;101350.13;;;7.86;96.31
4576;BME280;2300;51.874;8.430;2023-02-03T04:02:43;101343.78;;;7.86;96.01
4576;BME280;2300;51.874;8.430;2023-02-03T04:05:12;101350.75;;;7.88;96.18
4576;BME280;2300;51.874;8.430;2023-02-03T04:07:41;101347.13;;;7.81;96.13
4576;BME280;2300;51.874;8.430;2023-02-03T04:10:15;101337.47;;;7.85;96.58
4576;BME280;2300;51.874;8.430;2023-02-03T04:12:43;101331.22;;;7.92;95.98
4576;BME280;2300;51.874;8.430;2023-02-03T04:15:09;101333.25;;;7.83;95.90
4576;BME280;2300;51.874;8.430;2023-02-03T04:17:36;101328.25;;;7.86;96.06
4576;BME280;2300;51.874;8.430;2023-02-03T04:20:04;101334.88;;;7.77;96.07
4576;BME280;2300;51.874;8.430;2023-02-03T04:22:31;101339.97;;;7.80;96.70
4576;BME280;2300;51.874;8.430;2023-02-03T04:24:57;101327.34;;;7.79;96.12
4576;BME280;2300;51.874;8.430;2023-02-03T04:27:24;101338.34;;;7.86;95.93
4576;BME280;2300;51.874;8.430;2023-02-03T04:29:50;101340.63;;;7.82;95.48
4576;BME280;2300;51.874;8.430;2023-02-03T04:32:17;101334.09;;;7.83;95.57
4576;BME280;2300;51.874;8.430;2023-02-03T04:34:44;101335.34;;;7.81;95.66
4576;BME280;2300;51.874;8.430;2023-02-03T04:37:12;101329.41;;;7.77;95.10
4576;BME280;2300;51.874;8.430;2023-02-03T04:39:38;101337.88;;;7.82;95.80
4576;BME280;2300;51.874;8.430;2023-02-03T04:42:04;101337.06;;;7.88;95.43
4576;BME280;2300;51.874;8.430;2023-02-03T04:44:31;101349.66;;;7.83;95.19
4576;BME280;2300;51.874;8.430;2023-02-03T04:46:57;101346.91;;;7.83;95.32
4576;BME280;2300;51.874;8.430;2023-02-03T04:49:24;101332.00;;;7.85;94.81
4576;BME280;2300;51.874;8.430;2023-02-03T04:51:51;101317.41;;;7.72;94.53
4576;BME280;2300;51.874;8.430;2023-02-03T04:54:18;101349.91;;;7.88;95.18
4576;BME280;2300;51.874;8.430;2023-02-03T04:56:45;101338.09;;;7.81;94.69
4576;BME280;2300;51.874;8.430;2023-02-03T04:59:11;101332.00;;;7.85;94.75
4576;BME280;2300;51.874;8.430;2023-02-03T05:01:38;101317.31;;;7.93;94.43
4576;BME280;2300;51.874;8.430;2023-02-03T05:04:04;101309.78;;;7.95;94.77
4576;BME280;2300;51.874;8.430;2023-02-03T05:06:31;101297.13;;;7.94;94.55
4576;BME280;2300;51.874;8.430;2023-02-03T05:08:58;101293.72;;;7.85;94.37
4576;BME280;2300;51.874;8.430;2023-02-03T05:11:27;101282.00;;;7.92;94.58
4576;BME280;2300;51.874;8.430;2023-02-03T05:13:53;101294.63;;;7.93;93.30
4576;BME280;2300;51.874;8.430;2023-02-03T05:16:20;101285.81;;;7.97;94.09
4576;BME280;2300;51.874;8.430;2023-02-03T05:18:46;101287.75;;;8.03;93.53
4576;BME280;2300;51.874;8.430;2023-02-03T05:21:13;101286.19;;;7.87;93.37
4576;BME280;2300;51.874;8.430;2023-02-03T05:23:39;101286.66;;;7.98;93.41
4576;BME280;2300;51.874;8.430;2023-02-03T05:26:06;101282.53;;;8.08;93.37
4576;BME280;2300;51.874;8.430;2023-02-03T05:28:34;101285.34;;;7.94;92.75
4576;BME280;2300;51.874;8.430;2023-02-03T05:31:01;101287.69;;;7.97;93.50
4576;BME280;2300;51.874;8.430;2023-02-03T05:33:28;101292.53;;;7.95;93.37
4576;BME280;2300;51.874;8.430;2023-02-03T05:35:58;101283.50;;;8.01;93.21
4576;BME280;2300;51.874;8.430;2023-02-03T05:38:24;101286.91;;;8.03;92.89
4576;BME280;2300;51.874;8.430;2023-02-03T05:40:52;101278.28;;;8.06;92.89
4576;BME280;2300;51.874;8.430;2023-02-03T05:43:37;101282.41;;;7.95;92.71
4576;BME280;2300;51.874;8.430;2023-02-03T05:46:05;101263.22;;;7.88;93.34
4576;BME280;2300;51.874;8.430;2023-02-03T05:48:32;101267.72;;;7.96;93.62
4576;BME280;2300;51.874;8.430;2023-02-03T05:50:59;101265.13;;;7.88;93.42
4576;BME280;2300;51.874;8.430;2023-02-03T05:53:25;101267.84;;;7.88;94.10
4576;BME280;2300;51.874;8.430;2023-02-03T05:55:53;101280.28;;;7.91;93.61
4576;BME280;2300;51.874;8.430;2023-02-03T05:58:19;101271.91;;;7.99;93.64
4576;BME280;2300;51.874;8.430;2023-02-03T06:00:47;101275.75;;;8.04;93.53
4576;BME280;2300;51.874;8.430;2023-02-03T06:03:14;101283.31;;;8.02;93.38
4576;BME280;2300;51.874;8.430;2023-02-03T06:05:40;101262.88;;;7.98;93.25
4576;BME280;2300;51.874;8.430;2023-02-03T06:08:07;101277.63;;;8.04;92.96
4576;BME280;2300;51.874;8.430;2023-02-03T06:10:34;101274.66;;;7.99;92.68
4576;BME280;2300;51.874;8.430;2023-02-03T06:13:08;101277.44;;;8.05;93.31
4576;BME280;2300;51.874;8.430;2023-02-03T06:15:35;101282.00;;;7.98;93.19
4576;BME280;2300;51.874;8.430;2023-02-03T06:18:03;101271.34;;;8.03;93.29
4576;BME280;2300;51.874;8.430;2023-02-03T06:20:29;101289.88;;;8.08;93.50
4576;BME280;2300;51.874;8.430;2023-02-03T06:22:56;101273.00;;;7.98;93.53
4576;BME280;2300;51.874;8.430;2023-02-03T06:25:22;101287.03;;;7.95;94.99
4576;BME280;2300;51.874;8.430;2023-02-03T06:27:49;101287.69;;;7.97;95.70
4576;BME280;2300;51.874;8.430;2023-02-03T06:30:16;101282.38;;;7.88;96.37
4576;BME280;2300;51.874;8.430;2023-02-03T06:32:44;101283.34;;;7.74;98.27
4576;BME280;2300;51.874;8.430;2023-02-03T06:35:12;101305.41;;;7.73;98.34
4576;BME280;2300;51.874;8.430;2023-02-03T06:37:38;101280.78;;;7.66;100.00
4576;BME280;2300;51.874;8.430;2023-02-03T06:40:06;101275.91;;;7.62;100.00
4576;BME280;2300;51.874;8.430;2023-02-03T06:42:33;101289.56;;;7.62;100.00
4576;BME280;2300;51.874;8.430;2023-02-03T06:44:59;101292.75;;;7.65;100.00
4576;BME280;2300;51.874;8.430;2023-02-03T06:47:25;101268.63;;;7.48;100.00
4576;BME280;2300;51.874;8.430;2023-02-03T06:49:52;101277.06;;;7.46;100.00
4576;BME280;2300;51.874;8.430;2023-02-03T06:52:20;101267.28;;;7.37;100.00
4576;BME280;2300;51.874;8.430;2023-02-03T06:54:46;101277.94;;;7.53;100.00
4576;BME280;2300;51.874;8.430;2023-02-03T06:57:13;101289.28;;;7.50;100.00
4576;BME280;2300;51.874;8.430;2023-02-03T06:59:39;101293.03;;;7.49;100.00
4576;BME280;2300;51.874;8.430;2023-02-03T07:02:06;101257.59;;;7.34;100.00
4576;BME280;2300;51.874;8.430;2023-02-03T07:04:32;101292.88;;;7.57;100.00
4576;BME280;2300;51.874;8.430;2023-02-03T07:06:58;101279.56;;;7.48;100.00
4576;BME280;2300;51.874;8.430;2023-02-03T07:09:26;101294.97;;;7.55;100.00
4576;BME280;2300;51.874;8.430;2023-02-03T07:12:01;101294.19;;;7.61;100.00
4576;BME280;2300;51.874;8.430;2023-02-03T07:14:27;101292.09;;;7.63;100.00
4576;BME280;2300;51.874;8.430;2023-02-03T07:16:55;101294.97;;;7.55;100.00
4576;BME280;2300;51.874;8.430;2023-02-03T07:19:22;101283.88;;;7.57;100.00
4576;BME280;2300;51.874;8.430;2023-02-03T07:21:48;101282.75;;;7.51;100.00
4576;BME280;2300;51.874;8.430;2023-02-03T07:24:14;101277.94;;;7.53;100.00
4576;BME280;2300;51.874;8.430;2023-02-03T07:26:42;101274.81;;;7.56;100.00
4576;BME280;2300;51.874;8.430;2023-02-03T07:29:09;101274.16;;;7.54;100.00
4576;BME280;2300;51.874;8.430;2023-02-03T07:31:35;101272.66;;;7.52;100.00
4576;BME280;2300;51.874;8.430;2023-02-03T07:34:02;101269.53;;;7.55;100.00
4576;BME280;2300;51.874;8.430;2023-02-03T07:36:29;101271.22;;;7.56;100.00
4576;BME280;2300;51.874;8.430;2023-02-03T07:38:55;101274.44;;;7.38;100.00
4576;BME280;2300;51.874;8.430;2023-02-03T07:41:22;101277.22;;;7.44;100.00
4576;BME280;2300;51.874;8.430;2023-02-03T07:43:50;101279.13;;;7.44;100.00
4576;BME280;2300;51.874;8.430;2023-02-03T07:46:16;101272.63;;;7.45;100.00
4576;BME280;2300;51.874;8.430;2023-02-03T07:48:43;101279.38;;;7.49;100.00
4576;BME280;2300;51.874;8.430;2023-02-03T07:51:09;101262.81;;;7.57;100.00
4576;BME280;2300;51.874;8.430;2023-02-03T07:53:35;101259.69;;;7.60;100.00
4576;BME280;2300;51.874;8.430;2023-02-03T07:56:03;101261.16;;;7.56;100.00
4576;BME280;2300;51.874;8.430;2023-02-03T07:58:31;101259.88;;;7.59;100.00
4576;BME280;2300;51.874;8.430;2023-02-03T08:00:59;101246.50;;;7.70;100.00
4576;BME280;2300;51.874;8.430;2023-02-03T08:03:25;101255.09;;;7.67;100.00
4576;BME280;2300;51.874;8.430;2023-02-03T08:05:52;101251.50;;;7.60;100.00
4576;BME280;2300;51.874;8.430;2023-02-03T08:08:18;101256.97;;;7.60;100.00
4576;BME280;2300;51.874;8.430;2023-02-03T08:10:45;101258.44;;;7.63;100.00
4576;BME280;2300;51.874;8.430;2023-02-03T08:13:11;101250.28;;;7.69;100.00
4576;BME280;2300;51.874;8.430;2023-02-03T08:15:38;101253.22;;;7.68;100.00
4576;BME280;2300;51.874;8.430;2023-02-03T08:18:06;101261.47;;;7.74;100.00
4576;BME280;2300;51.874;8.430;2023-02-03T08:20:34;101270.44;;;7.62;100.00
4576;BME280;2300;51.874;8.430;2023-02-03T08:23:00;101265.78;;;7.62;100.00
4576;BME280;2300;51.874;8.430;2023-02-03T08:25:26;101259.88;;;7.59;100.00
4576;BME280;2300;51.874;8.430;2023-02-03T08:27:53;101263.72;;;7.64;100.00
4576;BME280;2300;51.874;8.430;2023-02-03T08:30:20;101267.25;;;7.58;100.00
4576;BME280;2300;51.874;8.430;2023-02-03T08:32:47;101268.38;;;7.70;100.00
4576;BME280;2300;51.874;8.430;2023-02-03T08:35:14;101272.94;;;7.63;100.00
4576;BME280;2300;51.874;8.430;2023-02-03T08:37:41;101274.47;;;7.66;100.00
4576;BME280;2300;51.874;8.430;2023-02-03T08:40:09;101275.13;;;7.74;100.00
4576;BME280;2300;51.874;8.430;2023-02-03T08:42:36;101270.94;;;7.72;100.00
4576;BME280;2300;51.874;8.430;2023-02-03T08:45:03;101261.72;;;7.79;100.00
4576;BME280;2300;51.874;8.430;2023-02-03T08:47:30;101261.22;;;7.69;100.00
4576;BME280;2300;51.874;8.430;2023-02-03T08:49:56;101267.97;;;7.73;100.00
4576;BME280;2300;51.874;8.430;2023-02-03T08:52:24;101267.13;;;7.73;100.00
4576;BME280;2300;51.874;8.430;2023-02-03T08:54:51;101265.91;;;7.75;100.00
4576;BME280;2300;51.874;8.430;2023-02-03T08:57:17;101269.72;;;7.81;100.00
4576;BME280;2300;51.874;8.430;2023-02-03T08:59:44;101267.84;;;7.81;100.00
4576;BME280;2300;51.874;8.430;2023-02-03T09:02:14;101255.59;;;7.77;100.00
4576;BME280;2300;51.874;8.430;2023-02-03T09:04:41;101252.03;;;7.77;100.00
4576;BME280;2300;51.874;8.430;2023-02-03T09:07:08;101257.19;;;8.00;100.00
4576;BME280;2300;51.874;8.430;2023-02-03T09:09:36;101246.31;;;8.06;100.00
4576;BME280;2300;51.874;8.430;2023-02-03T09:12:04;101243.28;;;7.95;100.00
4576;BME280;2300;51.874;8.430;2023-02-03T09:14:32;101228.38;;;7.97;100.00
4576;BME280;2300;51.874;8.430;2023-02-03T09:16:58;101230.31;;;8.10;100.00
4576;BME280;2300;51.874;8.430;2023-02-03T09:19:25;101239.41;;;8.17;100.00
4576;BME280;2300;51.874;8.430;2023-02-03T09:21:51;101235.59;;;8.11;100.00
4576;BME280;2300;51.874;8.430;2023-02-03T09:24:18;101253.47;;;8.14;100.00
4576;BME280;2300;51.874;8.430;2023-02-03T09:26:46;101248.91;;;8.21;100.00
4576;BME280;2300;51.874;8.430;2023-02-03T09:29:12;101261.53;;;8.22;100.00
4576;BME280;2300;51.874;8.430;2023-02-03T09:31:39;101264.50;;;8.27;99.88
4576;BME280;2300;51.874;8.430;2023-02-03T09:34:05;101261.75;;;8.27;99.84
4576;BME280;2300;51.874;8.430;2023-02-03T09:36:32;101271.81;;;8.20;100.00
4576;BME280;2300;51.874;8.430;2023-02-03T09:38:59;101282.63;;;8.28;100.00
4576;BME280;2300;51.874;8.430;2023-02-03T09:41:50;101253.13;;;8.30;100.00
4576;BME280;2300;51.874;8.430;2023-02-03T09:44:26;101261.34;;;8.30;100.00
4576;BME280;2300;51.874;8.430;2023-02-03T09:46:59;101270.16;;;8.25;100.00
4576;BME280;2300;51.874;8.430;2023-02-03T09:49:27;101269.97;;;8.27;100.00
4576;BME280;2300;51.874;8.430;2023-02-03T09:51:59;101271.63;;;8.21;100.00
4576;BME280;2300;51.874;8.430;2023-02-03T09:54:35;101265.59;;;8.32;100.00
4576;BME280;2300;51.874;8.430;2023-02-03T09:57:11;101271.25;;;8.31;100.00
4576;BME280;2300;51.874;8.430;2023-02-03T09:59:38;101272.28;;;8.23;100.00
4576;BME280;2300;51.874;8.430;2023-02-03T10:02:26;101262.00;;;8.32;99.93
4576;BME280;2300;51.874;8.430;2023-02-03T10:04:58;101252.78;;;8.46;99.58
4576;BME280;2300;51.874;8.430;2023-02-03T10:07:33;101251.91;;;8.32;99.64
4576;BME280;2300;51.874;8.430;2023-02-03T10:10:11;101259.53;;;8.44;99.67
4576;BME280;2300;51.874;8.430;2023-02-03T10:12:58;101243.94;;;8.44;98.67
4576;BME280;2300;51.874;8.430;2023-02-03T10:15:51;101263.34;;;8.49;98.24
4576;BME280;2300;51.874;8.430;2023-02-03T10:18:34;101250.06;;;8.53;98.41
4576;BME280;2300;51.874;8.430;2023-02-03T10:21:05;101256.41;;;8.53;97.76
4576;BME280;2300;51.874;8.430;2023-02-03T10:23:39;101259.09;;;8.47;98.30
4576;BME280;2300;51.874;8.430;2023-02-03T10:26:08;101265.00;;;8.44;98.38
4576;BME280;2300;51.874;8.430;2023-02-03T10:28:43;101277.41;;;8.46;98.81
4576;BME280;2300;51.874;8.430;2023-02-03T10:31:16;101281.41;;;8.44;98.98
4576;BME280;2300;51.874;8.430;2023-02-03T10:33:43;101279.91;;;8.41;99.12
4576;BME280;2300;51.874;8.430;2023-02-03T10:36:17;101284.78;;;8.39;100.00
4576;BME280;2300;51.874;8.430;2023-02-03T10:38:51;101305.78;;;8.32;100.00
4576;BME280;2300;51.874;8.430;2023-02-03T10:41:21;101309.13;;;8.27;100.00
4576;BME280;2300;51.874;8.430;2023-02-03T10:43:50;101311.03;;;8.27;100.00
4576;BME280;2300;51.874;8.430;2023-02-03T10:46:19;101312.91;;;8.26;100.00
4576;BME280;2300;51.874;8.430;2023-02-03T10:48:46;101314.19;;;8.24;100.00
4576;BME280;2300;51.874;8.430;2023-02-03T10:51:18;101322.75;;;8.21;100.00
4576;BME280;2300;51.874;8.430;2023-02-03T10:53:45;101313.53;;;8.22;100.00
4576;BME280;2300;51.874;8.430;2023-02-03T10:56:13;101306.53;;;8.13;100.00
4576;BME280;2300;51.874;8.430;2023-02-03T10:58:46;101305.25;;;8.15;100.00
4576;BME280;2300;51.874;8.430;2023-02-03T11:01:17;101311.22;;;8.25;100.00
4576;BME280;2300;51.874;8.430;2023-02-03T11:03:54;101308.47;;;8.25;100.00
4576;BME280;2300;51.874;8.430;2023-02-03T11:06:22;101303.47;;;8.29;100.00
4576;BME280;2300;51.874;8.430;2023-02-03T11:08:50;101312.53;;;8.36;100.00
4576;BME280;2300;51.874;8.430;2023-02-03T11:11:20;101316.78;;;8.39;100.00
4576;BME280;2300;51.874;8.430;2023-02-03T11:13:52;101318.47;;;8.46;100.00
4576;BME280;2300;51.874;8.430;2023-02-03T11:16:20;101302.91;;;8.47;100.00
4576;BME280;2300;51.874;8.430;2023-02-03T11:18:54;101310.50;;;8.45;100.00
4576;BME280;2300;51.874;8.430;2023-02-03T11:21:22;101303.28;;;8.37;100.00
4576;BME280;2300;51.874;8.430;2023-02-03T11:23:54;101302.63;;;8.35;100.00
4576;BME280;2300;51.874;8.430;2023-02-03T11:26:23;101294.06;;;8.51;100.00
4576;BME280;2300;51.874;8.430;2023-02-03T11:28:53;101299.50;;;8.38;100.00
4576;BME280;2300;51.874;8.430;2023-02-03T11:31:24;101295.72;;;8.46;100.00
4576;BME280;2300;51.874;8.430;2023-02-03T11:34:03;101299.34;;;8.53;100.00
4576;BME280;2300;51.874;8.430;2023-02-03T11:36:31;101287.31;;;8.47;100.00
4576;BME280;2300;51.874;8.430;2023-02-03T11:39:19;101276.38;;;8.47;100.00
4576;BME280;2300;51.874;8.430;2023-02-03T11:41:46;101285.84;;;8.51;100.00
4576;BME280;2300;51.874;8.430;2023-02-03T11:44:20;101293.22;;;8.51;100.00
4576;BME280;2300;51.874;8.430;2023-02-03T11:46:51;101299.53;;;8.45;100.00
4576;BME280;2300;51.874;8.430;2023-02-03T11:49:37;101299.88;;;8.35;100.00
4576;BME280;2300;51.874;8.430;2023-02-03T11:52:22;101296.06;;;8.23;100.00
4576;BME280;2300;51.874;8.430;2023-02-03T11:55:02;101295.88;;;8.31;100.00
4576;BME280;2300;51.874;8.430;2023-02-03T11:57:39;101310.84;;;8.35;100.00
4576;BME280;2300;51.874;8.430;2023-02-03T12:00:20;101306.63;;;8.32;100.00
4576;BME280;2300;51.874;8.430;2023-02-03T12:03:35;101324.28;;;8.23;100.00
4576;BME280;2300;51.874;8.430;2023-02-03T12:06:19;101328.03;;;8.22;100.00
4576;BME280;2300;51.874;8.430;2023-02-03T12:09:01;101322.91;;;8.06;100.00
4576;BME280;2300;51.874;8.430;2023-02-03T12:11:39;101333.88;;;8.13;100.00
4576;BME280;2300;51.874;8.430;2023-02-03T12:14:25;101341.06;;;8.20;100.00
4576;BME280;2300;51.874;8.430;2023-02-03T12:17:13;101356.28;;;8.29;100.00
4576;BME280;2300;51.874;8.430;2023-02-03T12:19:55;101368.06;;;8.30;100.00
4576;BME280;2300;51.874;8.430;2023-02-03T12:22:32;101365.31;;;8.30;100.00
4576;BME280;2300;51.874;8.430;2023-02-03T12:25:08;101376.38;;;8.43;100.00
4576;BME280;2300;51.874;8.430;2023-02-03T12:27:45;101372.75;;;8.36;100.00
4576;BME280;2300;51.874;8.430;2023-02-03T12:30:19;101370.56;;;8.25;100.00
4576;BME280;2300;51.874;8.430;2023-02-03T12:32:49;101377.59;;;8.34;100.00
4576;BME280;2300;51.874;8.430;2023-02-03T12:35:22;101372.31;;;8.32;100.00
4576;BME280;2300;51.874;8.430;2023-02-03T12:37:57;101387.94;;;8.39;100.00
4576;BME280;2300;51.874;8.430;2023-02-03T12:40:34;101382.00;;;8.35;100.00
4576;BME280;2300;51.874;8.430;2023-02-03T12:43:16;101376.56;;;8.42;100.00
4576;BME280;2300;51.874;8.430;2023-02-03T12:45:51;101387.50;;;8.42;100.00
4576;BME280;2300;51.874;8.430;2023-02-03T12:48:21;101380.81;;;8.44;100.00
4576;BME280;2300;51.874;8.430;2023-02-03T12:50:53;101389.88;;;8.51;99.56
4576;BME280;2300;51.874;8.430;2023-02-03T12:53:24;101380.81;;;8.44;99.31
4576;BME280;2300;51.874;8.430;2023-02-03T12:55:58;101374.03;;;8.40;99.04
4576;BME280;2300;51.874;8.430;2023-02-03T12:58:29;101368.59;;;8.47;99.47
4576;BME280;2300;51.874;8.430;2023-02-03T13:00:59;101376.19;;;8.45;98.77
4576;BME280;2300;51.874;8.430;2023-02-03T13:03:32;101366.97;;;8.59;97.62
4576;BME280;2300;51.874;8.430;2023-02-03T13:06:06;101367.16;;;8.57;97.92
4576;BME280;2300;51.874;8.430;2023-02-03T13:08:39;101374.97;;;8.60;97.96
4576;BME280;2300;51.874;8.430;2023-02-03T13:11:14;101368.63;;;8.53;97.33
4576;BME280;2300;51.874;8.430;2023-02-03T13:13:48;101382.63;;;8.71;95.88
4576;BME280;2300;51.874;8.430;2023-02-03T13:16:22;101388.59;;;8.82;94.77
4576;BME280;2300;51.874;8.430;2023-02-03T13:18:53;101381.00;;;8.84;94.56
4576;BME280;2300;51.874;8.430;2023-02-03T13:21:27;101372.19;;;8.88;94.73
4576;BME280;2300;51.874;8.430;2023-02-03T13:24:04;101351.09;;;8.76;94.22
4576;BME280;2300;51.874;8.430;2023-02-03T13:26:45;101352.38;;;8.93;92.79
4576;BME280;2300;51.874;8.430;2023-02-03T13:29:41;101342.66;;;8.84;92.78
4576;BME280;2300;51.874;8.430;2023-02-03T13:32:23;101352.81;;;8.90;93.07
4576;BME280;2300;51.874;8.430;2023-02-03T13:35:06;101354.06;;;8.81;92.36